Aviation Digital Data Service (ADDS)

Output produced by TAFs form (0150 UTC 29 June 2016)
found at http://aviationweather.gov/adds/tafs/
 
KRIL 282323Z 2900/2924 34003KT P6SM FEW150 SCT250 
     FM290200 22007KT P6SM BKN250 
     FM290500 15004KT P6SM BKN250 
     FM292000 29007KT P6SM SCT100 BKN250 
     FM292200 25009KT P6SM VCTS SCT120CB BKN250 
     FM292300 19009KT P6SM VCTS SCT100CB BKN200